sensor_id;sensor_type;location;lat;lon;timestamp;temperature;humidity
652;DHT22;310;48.490;9.200;2023-04-25T00:02:02;13.20;38.70
652;DHT22;310;48.490;9.200;2023-04-25T00:04:28;13.50;37.90
652;DHT22;310;48.490;9.200;2023-04-25T00:06:55;13.20;35.30
652;DHT22;310;48.490;9.200;2023-04-25T00:09:21;13.30;35.40
652;DHT22;310;48.490;9.200;2023-04-25T00:11:47;13.30;36.80
652;DHT22;310;48.490;9.200;2023-04-25T00:14:13;13.20;37.30
652;DHT22;310;48.490;9.200;2023-04-25T00:16:39;13.40;38.50
652;DHT22;310;48.490;9.200;2023-04-25T00:19:06;13.00;38.30
652;DHT22;310;48.490;9.200;2023-04-25T00:21:33;13.10;38.60
652;DHT22;310;48.490;9.200;2023-04-25T00:23:59;13.10;37.40
652;DHT22;310;48.490;9.200;2023-04-25T00:26:24;13.30;37.60
652;DHT22;310;48.490;9.200;2023-04-25T00:28:50;13.30;39.00
652;DHT22;310;48.490;9.200;2023-04-25T00:31:15;13.20;37.60
652;DHT22;310;48.490;9.200;2023-04-25T00:33:41;13.30;38.70
652;DHT22;310;48.490;9.200;2023-04-25T00:36:07;13.20;35.90
652;DHT22;310;48.490;9.200;2023-04-25T00:38:33;13.30;36.90
652;DHT22;310;48.490;9.200;2023-04-25T00:40:59;13.50;39.10
652;DHT22;310;48.490;9.200;2023-04-25T00:43:28;13.20;36.80
652;DHT22;310;48.490;9.200;2023-04-25T00:45:56;13.20;35.30
652;DHT22;310;48.490;9.200;2023-04-25T00:48:23;12.60;34.80
652;DHT22;310;48.490;9.200;2023-04-25T00:50:53;12.50;35.00
652;DHT22;310;48.490;9.200;2023-04-25T00:53:22;12.60;36.30
652;DHT22;310;48.490;9.200;2023-04-25T00:55:48;12.40;34.60
652;DHT22;310;48.490;9.200;2023-04-25T00:58:19;12.70;34.90
652;DHT22;310;48.490;9.200;2023-04-25T01:00:47;12.50;34.70
652;DHT22;310;48.490;9.200;2023-04-25T01:03:14;13.20;37.80
652;DHT22;310;48.490;9.200;2023-04-25T01:05:42;13.10;33.90
652;DHT22;310;48.490;9.200;2023-04-25T01:08:08;12.90;35.00
652;DHT22;310;48.490;9.200;2023-04-25T01:10:33;13.10;35.00
652;DHT22;310;48.490;9.200;2023-04-25T01:12:59;13.10;35.20
652;DHT22;310;48.490;9.200;2023-04-25T01:15:24;12.40;35.60
652;DHT22;310;48.490;9.200;2023-04-25T01:17:50;12.60;35.80
652;DHT22;310;48.490;9.200;2023-04-25T01:20:16;12.70;34.90
652;DHT22;310;48.490;9.200;2023-04-25T01:22:42;13.10;35.20
652;DHT22;310;48.490;9.200;2023-04-25T01:25:08;13.40;37.00
652;DHT22;310;48.490;9.200;2023-04-25T01:27:36;13.50;35.60
652;DHT22;310;48.490;9.200;2023-04-25T01:30:02;13.50;38.20
652;DHT22;310;48.490;9.200;2023-04-25T01:32:28;13.30;36.50
652;DHT22;310;48.490;9.200;2023-04-25T01:34:56;13.50;37.60
652;DHT22;310;48.490;9.200;2023-04-25T01:37:22;13.20;37.10
652;DHT22;310;48.490;9.200;2023-04-25T01:39:48;13.50;36.90
652;DHT22;310;48.490;9.200;2023-04-25T01:42:15;13.30;35.60
652;DHT22;310;48.490;9.200;2023-04-25T01:44:41;13.50;34.70
652;DHT22;310;48.490;9.200;2023-04-25T01:47:07;13.30;35.40
652;DHT22;310;48.490;9.200;2023-04-25T01:49:32;13.30;35.00
652;DHT22;310;48.490;9.200;2023-04-25T01:51:58;13.40;35.50
652;DHT22;310;48.490;9.200;2023-04-25T01:54:24;13.40;36.50
652;DHT22;310;48.490;9.200;2023-04-25T01:56:52;13.80;33.60
652;DHT22;310;48.490;9.200;2023-04-25T01:59:18;13.20;32.70
652;DHT22;310;48.490;9.200;2023-04-25T02:01:45;12.80;33.40
652;DHT22;310;48.490;9.200;2023-04-25T02:04:10;13.10;35.70
652;DHT22;310;48.490;9.200;2023-04-25T02:06:36;12.80;35.00
652;DHT22;310;48.490;9.200;2023-04-25T02:09:02;13.20;36.00
652;DHT22;310;48.490;9.200;2023-04-25T02:11:27;13.00;36.30
652;DHT22;310;48.490;9.200;2023-04-25T02:13:53;13.10;34.00
652;DHT22;310;48.490;9.200;2023-04-25T02:16:18;12.80;35.00
652;DHT22;310;48.490;9.200;2023-04-25T02:18:44;13.10;35.30
652;DHT22;310;48.490;9.200;2023-04-25T02:21:10;13.20;34.20
652;DHT22;310;48.490;9.200;2023-04-25T02:23:37;12.90;35.00
652;DHT22;310;48.490;9.200;2023-04-25T02:26:02;13.00;34.30
652;DHT22;310;48.490;9.200;2023-04-25T02:28:28;12.70;34.90
652;DHT22;310;48.490;9.200;2023-04-25T02:30:53;12.90;34.90
652;DHT22;310;48.490;9.200;2023-04-25T02:33:19;13.00;35.10
652;DHT22;310;48.490;9.200;2023-04-25T02:35:46;13.00;34.10
652;DHT22;310;48.490;9.200;2023-04-25T02:38:12;13.10;34.50
652;DHT22;310;48.490;9.200;2023-04-25T02:40:37;13.40;34.70
652;DHT22;310;48.490;9.200;2023-04-25T02:43:03;13.40;35.50
652;DHT22;310;48.490;9.200;2023-04-25T02:45:28;13.10;33.60
652;DHT22;310;48.490;9.200;2023-04-25T02:47:54;13.50;33.80
652;DHT22;310;48.490;9.200;2023-04-25T02:50:19;13.60;33.50
652;DHT22;310;48.490;9.200;2023-04-25T02:52:45;13.30;34.40
652;DHT22;310;48.490;9.200;2023-04-25T02:55:12;13.10;36.00
652;DHT22;310;48.490;9.200;2023-04-25T02:57:37;13.10;35.20
652;DHT22;310;48.490;9.200;2023-04-25T03:00:04;13.30;36.20
652;DHT22;310;48.490;9.200;2023-04-25T03:02:30;13.10;36.50
652;DHT22;310;48.490;9.200;2023-04-25T03:04:56;13.30;33.70
652;DHT22;310;48.490;9.200;2023-04-25T03:07:21;13.00;34.40
652;DHT22;310;48.490;9.200;2023-04-25T03:09:47;13.00;36.00
652;DHT22;310;48.490;9.200;2023-04-25T03:12:12;12.90;35.00
652;DHT22;310;48.490;9.200;2023-04-25T03:14:38;12.90;35.40
652;DHT22;310;48.490;9.200;2023-04-25T03:17:04;12.80;36.70
652;DHT22;310;48.490;9.200;2023-04-25T03:19:29;12.60;36.40
652;DHT22;310;48.490;9.200;2023-04-25T03:21:55;12.70;34.90
652;DHT22;310;48.490;9.200;2023-04-25T03:24:21;12.70;34.90
652;DHT22;310;48.490;9.200;2023-04-25T03:26:47;12.70;36.40
652;DHT22;310;48.490;9.200;2023-04-25T03:29:12;13.00;38.10
652;DHT22;310;48.490;9.200;2023-04-25T03:31:38;12.80;35.00
652;DHT22;310;48.490;9.200;2023-04-25T03:34:04;13.20;37.80
652;DHT22;310;48.490;9.200;2023-04-25T03:36:29;12.60;37.00
652;DHT22;310;48.490;9.200;2023-04-25T03:38:55;12.90;36.00
652;DHT22;310;48.490;9.200;2023-04-25T03:41:20;12.80;35.80
652;DHT22;310;48.490;9.200;2023-04-25T03:43:46;13.30;37.00
652;DHT22;310;48.490;9.200;2023-04-25T03:46:12;13.20;38.60
652;DHT22;310;48.490;9.200;2023-04-25T03:48:37;13.10;36.90
652;DHT22;310;48.490;9.200;2023-04-25T03:51:03;12.80;37.60
652;DHT22;310;48.490;9.200;2023-04-25T03:53:29;12.70;38.50
652;DHT22;310;48.490;9.200;2023-04-25T03:55:54;12.90;40.00
652;DHT22;310;48.490;9.200;2023-04-25T03:58:20;12.60;39.60
652;DHT22;310;48.490;9.200;2023-04-25T04:00:45;12.50;39.30
652;DHT22;310;48.490;9.200;2023-04-25T04:03:11;12.50;39.20
652;DHT22;310;48.490;9.200;2023-04-25T04:05:36;13.00;40.00
652;DHT22;310;48.490;9.200;2023-04-25T04:08:02;12.70;36.70
652;DHT22;310;48.490;9.200;2023-04-25T04:10:28;12.70;37.60
652;DHT22;310;48.490;9.200;2023-04-25T04:12:54;12.70;37.90
652;DHT22;310;48.490;9.200;2023-04-25T04:15:19;12.70;38.70
652;DHT22;310;48.490;9.200;2023-04-25T04:17:45;12.50;39.60
652;DHT22;310;48.490;9.200;2023-04-25T04:20:12;12.40;39.80
652;DHT22;310;48.490;9.200;2023-04-25T04:22:37;12.90;38.70
652;DHT22;310;48.490;9.200;2023-04-25T04:25:03;12.90;39.10
652;DHT22;310;48.490;9.200;2023-04-25T04:27:31;12.40;39.10
652;DHT22;310;48.490;9.200;2023-04-25T04:29:57;12.70;40.20
652;DHT22;310;48.490;9.200;2023-04-25T04:32:23;12.60;38.60
652;DHT22;310;48.490;9.200;2023-04-25T04:34:49;12.60;38.90
652;DHT22;310;48.490;9.200;2023-04-25T04:37:14;12.70;39.10
652;DHT22;310;48.490;9.200;2023-04-25T04:39:40;12.70;38.60
652;DHT22;310;48.490;9.200;2023-04-25T04:42:06;12.60;39.00
652;DHT22;310;48.490;9.200;2023-04-25T04:44:32;12.70;38.60
652;DHT22;310;48.490;9.200;2023-04-25T04:46:59;12.80;38.80
652;DHT22;310;48.490;9.200;2023-04-25T04:49:24;12.80;35.80
652;DHT22;310;48.490;9.200;2023-04-25T04:51:50;12.90;35.00
652;DHT22;310;48.490;9.200;2023-04-25T04:54:16;12.90;35.90
652;DHT22;310;48.490;9.200;2023-04-25T04:56:41;12.90;37.30
652;DHT22;310;48.490;9.200;2023-04-25T04:59:07;12.90;36.20
652;DHT22;310;48.490;9.200;2023-04-25T05:01:33;12.90;36.00
652;DHT22;310;48.490;9.200;2023-04-25T05:04:01;12.90;35.00
652;DHT22;310;48.490;9.200;2023-04-25T05:06:28;12.80;35.70
652;DHT22;310;48.490;9.200;2023-04-25T05:08:57;12.90;36.70
652;DHT22;310;48.490;9.200;2023-04-25T05:11:24;12.90;34.10
652;DHT22;310;48.490;9.200;2023-04-25T05:13:51;13.20;35.30
652;DHT22;310;48.490;9.200;2023-04-25T05:16:17;13.00;36.70
652;DHT22;310;48.490;9.200;2023-04-25T05:18:43;13.10;35.30
652;DHT22;310;48.490;9.200;2023-04-25T05:21:08;13.20;35.00
652;DHT22;310;48.490;9.200;2023-04-25T05:23:34;12.60;34.80
652;DHT22;310;48.490;9.200;2023-04-25T05:26:00;12.40;34.90
652;DHT22;310;48.490;9.200;2023-04-25T05:28:25;12.20;37.20
652;DHT22;310;48.490;9.200;2023-04-25T05:30:51;12.00;37.20
652;DHT22;310;48.490;9.200;2023-04-25T05:33:17;11.80;36.70
652;DHT22;310;48.490;9.200;2023-04-25T05:35:43;12.10;36.70
652;DHT22;310;48.490;9.200;2023-04-25T05:38:09;12.30;36.50
652;DHT22;310;48.490;9.200;2023-04-25T05:40:35;12.50;37.00
652;DHT22;310;48.490;9.200;2023-04-25T05:43:00;12.10;37.40
652;DHT22;310;48.490;9.200;2023-04-25T05:45:26;12.90;37.80
652;DHT22;310;48.490;9.200;2023-04-25T05:47:52;13.10;35.10
652;DHT22;310;48.490;9.200;2023-04-25T05:50:17;13.30;35.30
652;DHT22;310;48.490;9.200;2023-04-25T05:52:43;13.30;35.40
652;DHT22;310;48.490;9.200;2023-04-25T05:55:09;13.80;35.80
652;DHT22;310;48.490;9.200;2023-04-25T05:57:34;13.60;34.30
652;DHT22;310;48.490;9.200;2023-04-25T06:00:00;13.40;34.70
652;DHT22;310;48.490;9.200;2023-04-25T06:02:26;13.10;35.30
652;DHT22;310;48.490;9.200;2023-04-25T06:04:51;13.20;35.30
652;DHT22;310;48.490;9.200;2023-04-25T06:07:20;13.00;34.10
652;DHT22;310;48.490;9.200;2023-04-25T06:09:46;12.90;35.10
652;DHT22;310;48.490;9.200;2023-04-25T06:12:12;13.00;35.10
652;DHT22;310;48.490;9.200;2023-04-25T06:14:37;12.90;35.00
652;DHT22;310;48.490;9.200;2023-04-25T06:17:03;13.00;35.20
652;DHT22;310;48.490;9.200;2023-04-25T06:19:34;13.00;32.90
652;DHT22;310;48.490;9.200;2023-04-25T06:22:00;12.40;35.80
652;DHT22;310;48.490;9.200;2023-04-25T06:24:26;11.90;37.00
652;DHT22;310;48.490;9.200;2023-04-25T06:26:52;11.70;37.00
652;DHT22;310;48.490;9.200;2023-04-25T06:29:18;12.10;35.90
652;DHT22;310;48.490;9.200;2023-04-25T06:31:43;12.60;36.50
652;DHT22;310;48.490;9.200;2023-04-25T06:34:09;12.80;35.00
652;DHT22;310;48.490;9.200;2023-04-25T06:36:34;13.10;35.20
652;DHT22;310;48.490;9.200;2023-04-25T06:39:00;11.90;37.40
652;DHT22;310;48.490;9.200;2023-04-25T06:41:26;12.10;36.40
652;DHT22;310;48.490;9.200;2023-04-25T06:43:51;12.00;37.00
652;DHT22;310;48.490;9.200;2023-04-25T06:46:17;12.20;35.60
652;DHT22;310;48.490;9.200;2023-04-25T06:48:42;12.10;36.20
652;DHT22;310;48.490;9.200;2023-04-25T06:51:08;12.30;36.10
652;DHT22;310;48.490;9.200;2023-04-25T06:53:34;12.50;35.30
652;DHT22;310;48.490;9.200;2023-04-25T06:55:59;12.10;35.60
652;DHT22;310;48.490;9.200;2023-04-25T06:58:25;11.90;35.40
652;DHT22;310;48.490;9.200;2023-04-25T07:00:51;11.70;37.10
652;DHT22;310;48.490;9.200;2023-04-25T07:03:17;11.90;36.50
652;DHT22;310;48.490;9.200;2023-04-25T07:05:43;12.10;35.50
652;DHT22;310;48.490;9.200;2023-04-25T07:08:08;12.00;36.30
652;DHT22;310;48.490;9.200;2023-04-25T07:10:34;12.30;34.50
652;DHT22;310;48.490;9.200;2023-04-25T07:13:00;11.90;37.50
652;DHT22;310;48.490;9.200;2023-04-25T07:15:26;11.70;38.70
652;DHT22;310;48.490;9.200;2023-04-25T07:17:51;12.10;41.00
652;DHT22;310;48.490;9.200;2023-04-25T07:20:17;12.30;38.80
652;DHT22;310;48.490;9.200;2023-04-25T07:22:43;11.50;38.80
652;DHT22;310;48.490;9.200;2023-04-25T07:25:09;11.70;40.00
652;DHT22;310;48.490;9.200;2023-04-25T07:27:35;11.50;40.50
652;DHT22;310;48.490;9.200;2023-04-25T07:30:00;11.70;41.10
652;DHT22;310;48.490;9.200;2023-04-25T07:32:26;11.60;42.30
652;DHT22;310;48.490;9.200;2023-04-25T07:34:52;12.20;42.80
652;DHT22;310;48.490;9.200;2023-04-25T07:37:17;12.20;40.40
652;DHT22;310;48.490;9.200;2023-04-25T07:39:44;12.20;39.60
652;DHT22;310;48.490;9.200;2023-04-25T07:42:11;12.00;40.00
652;DHT22;310;48.490;9.200;2023-04-25T07:44:37;12.00;41.90
652;DHT22;310;48.490;9.200;2023-04-25T07:47:06;12.50;42.80
652;DHT22;310;48.490;9.200;2023-04-25T07:49:35;12.60;41.50
652;DHT22;310;48.490;9.200;2023-04-25T07:52:02;12.40;39.50
652;DHT22;310;48.490;9.200;2023-04-25T07:54:28;12.00;40.60
652;DHT22;310;48.490;9.200;2023-04-25T07:56:53;11.90;42.20
652;DHT22;310;48.490;9.200;2023-04-25T07:59:19;12.00;41.90
652;DHT22;310;48.490;9.200;2023-04-25T08:01:45;12.40;42.50
652;DHT22;310;48.490;9.200;2023-04-25T08:04:11;12.40;41.70
652;DHT22;310;48.490;9.200;2023-04-25T08:06:36;12.10;42.90
652;DHT22;310;48.490;9.200;2023-04-25T08:09:02;11.70;45.20
652;DHT22;310;48.490;9.200;2023-04-25T08:11:28;12.00;44.60
652;DHT22;310;48.490;9.200;2023-04-25T08:13:54;12.30;43.80
652;DHT22;310;48.490;9.200;2023-04-25T08:16:20;12.00;42.80
652;DHT22;310;48.490;9.200;2023-04-25T08:18:45;11.60;46.80
652;DHT22;310;48.490;9.200;2023-04-25T08:21:11;11.50;48.80
652;DHT22;310;48.490;9.200;2023-04-25T08:23:38;11.80;46.60
652;DHT22;310;48.490;9.200;2023-04-25T08:26:03;11.70;46.60
652;DHT22;310;48.490;9.200;2023-04-25T08:28:30;11.80;46.40
652;DHT22;310;48.490;9.200;2023-04-25T08:30:56;12.20;47.00
652;DHT22;310;48.490;9.200;2023-04-25T08:33:21;12.20;45.00
652;DHT22;310;48.490;9.200;2023-04-25T08:35:47;11.70;46.30
652;DHT22;310;48.490;9.200;2023-04-25T08:38:12;11.50;47.30
652;DHT22;310;48.490;9.200;2023-04-25T08:40:39;11.80;47.00
652;DHT22;310;48.490;9.200;2023-04-25T08:43:08;12.10;46.50
652;DHT22;310;48.490;9.200;2023-04-25T08:45:40;11.70;47.10
652;DHT22;310;48.490;9.200;2023-04-25T08:48:12;12.00;45.70
652;DHT22;310;48.490;9.200;2023-04-25T08:50:49;11.90;45.00
652;DHT22;310;48.490;9.200;2023-04-25T08:53:16;11.80;46.30
652;DHT22;310;48.490;9.200;2023-04-25T08:55:46;12.10;45.40
652;DHT22;310;48.490;9.200;2023-04-25T08:58:12;12.00;46.80
652;DHT22;310;48.490;9.200;2023-04-25T09:00:38;12.50;47.10
652;DHT22;310;48.490;9.200;2023-04-25T09:03:04;12.70;44.40
652;DHT22;310;48.490;9.200;2023-04-25T09:05:32;12.90;44.50
652;DHT22;310;48.490;9.200;2023-04-25T09:07:58;12.80;44.10
652;DHT22;310;48.490;9.200;2023-04-25T09:10:23;12.80;44.40
652;DHT22;310;48.490;9.200;2023-04-25T09:13:09;13.00;42.50
652;DHT22;310;48.490;9.200;2023-04-25T09:16:05;12.80;40.10
652;DHT22;310;48.490;9.200;2023-04-25T09:18:32;12.80;41.00
652;DHT22;310;48.490;9.200;2023-04-25T09:21:06;12.20;40.40
652;DHT22;310;48.490;9.200;2023-04-25T09:23:44;12.20;42.60
652;DHT22;310;48.490;9.200;2023-04-25T09:26:10;11.90;42.70
652;DHT22;310;48.490;9.200;2023-04-25T09:28:38;12.10;45.10
652;DHT22;310;48.490;9.200;2023-04-25T09:31:04;12.50;42.70
652;DHT22;310;48.490;9.200;2023-04-25T09:33:33;13.00;44.50
652;DHT22;310;48.490;9.200;2023-04-25T09:36:08;12.60;42.20
652;DHT22;310;48.490;9.200;2023-04-25T09:38:43;12.10;42.10
652;DHT22;310;48.490;9.200;2023-04-25T09:41:10;11.30;44.40
652;DHT22;310;48.490;9.200;2023-04-25T09:43:36;11.30;43.70
652;DHT22;310;48.490;9.200;2023-04-25T09:46:02;11.20;44.80
652;DHT22;310;48.490;9.200;2023-04-25T09:48:32;10.80;44.30
652;DHT22;310;48.490;9.200;2023-04-25T09:53:30;10.90;46.60
652;DHT22;310;48.490;9.200;2023-04-25T09:55:59;10.80;49.00
652;DHT22;310;48.490;9.200;2023-04-25T09:58:25;10.80;49.30
652;DHT22;310;48.490;9.200;2023-04-25T10:00:55;11.10;44.90
652;DHT22;310;48.490;9.200;2023-04-25T10:03:25;11.10;44.10
652;DHT22;310;48.490;9.200;2023-04-25T10:05:52;10.90;44.30
652;DHT22;310;48.490;9.200;2023-04-25T10:08:18;10.80;45.10
652;DHT22;310;48.490;9.200;2023-04-25T10:10:46;10.70;47.80
652;DHT22;310;48.490;9.200;2023-04-25T10:13:13;10.80;48.20
652;DHT22;310;48.490;9.200;2023-04-25T10:15:40;10.90;44.00
652;DHT22;310;48.490;9.200;2023-04-25T10:18:07;10.80;45.40
652;DHT22;310;48.490;9.200;2023-04-25T10:20:32;10.80;46.20
652;DHT22;310;48.490;9.200;2023-04-25T10:23:11;10.20;51.80
652;DHT22;310;48.490;9.200;2023-04-25T10:25:39;9.90;54.50
652;DHT22;310;48.490;9.200;2023-04-25T10:28:05;10.00;52.60
652;DHT22;310;48.490;9.200;2023-04-25T10:30:31;9.80;54.30
652;DHT22;310;48.490;9.200;2023-04-25T10:32:58;9.40;56.00
652;DHT22;310;48.490;9.200;2023-04-25T10:35:28;8.70;60.20
652;DHT22;310;48.490;9.200;2023-04-25T10:38:05;8.60;59.20
652;DHT22;310;48.490;9.200;2023-04-25T10:40:32;8.50;61.60
652;DHT22;310;48.490;9.200;2023-04-25T10:46:12;9.00;56.00
652;DHT22;310;48.490;9.200;2023-04-25T10:48:52;8.60;57.60
652;DHT22;310;48.490;9.200;2023-04-25T10:51:26;8.50;58.20
652;DHT22;310;48.490;9.200;2023-04-25T10:54:12;8.30;58.00
652;DHT22;310;48.490;9.200;2023-04-25T10:56:40;9.40;52.50
652;DHT22;310;48.490;9.200;2023-04-25T10:59:15;9.30;50.10
652;DHT22;310;48.490;9.200;2023-04-25T11:01:42;9.20;52.80
652;DHT22;310;48.490;9.200;2023-04-25T11:04:25;9.30;51.60
652;DHT22;310;48.490;9.200;2023-04-25T11:07:23;9.90;50.20
652;DHT22;310;48.490;9.200;2023-04-25T11:09:52;10.10;48.30
652;DHT22;310;48.490;9.200;2023-04-25T11:12:18;10.80;45.30
652;DHT22;310;48.490;9.200;2023-04-25T11:14:43;11.00;44.40
652;DHT22;310;48.490;9.200;2023-04-25T11:17:09;11.00;42.80
652;DHT22;310;48.490;9.200;2023-04-25T11:19:36;11.00;43.30
652;DHT22;310;48.490;9.200;2023-04-25T11:22:02;10.60;43.00
652;DHT22;310;48.490;9.200;2023-04-25T11:24:29;10.30;43.00
652;DHT22;310;48.490;9.200;2023-04-25T11:26:56;10.00;44.60
652;DHT22;310;48.490;9.200;2023-04-25T11:29:23;10.50;46.10
652;DHT22;310;48.490;9.200;2023-04-25T11:31:49;10.40;44.30
652;DHT22;310;48.490;9.200;2023-04-25T11:34:20;9.80;48.50
652;DHT22;310;48.490;9.200;2023-04-25T11:36:46;9.60;46.90
652;DHT22;310;48.490;9.200;2023-04-25T11:39:12;9.90;47.20
652;DHT22;310;48.490;9.200;2023-04-25T11:41:38;10.30;47.70
652;DHT22;310;48.490;9.200;2023-04-25T11:44:04;10.80;45.40
652;DHT22;310;48.490;9.200;2023-04-25T11:46:30;10.60;43.90
652;DHT22;310;48.490;9.200;2023-04-25T11:48:57;10.20;44.80
652;DHT22;310;48.490;9.200;2023-04-25T11:51:22;10.20;45.10
652;DHT22;310;48.490;9.200;2023-04-25T11:53:48;10.20;43.30
652;DHT22;310;48.490;9.200;2023-04-25T11:56:14;10.10;48.60
652;DHT22;310;48.490;9.200;2023-04-25T11:58:56;9.50;49.10
652;DHT22;310;48.490;9.200;2023-04-25T12:03:52;10.40;44.40
652;DHT22;310;48.490;9.200;2023-04-25T12:06:17;10.80;44.70
652;DHT22;310;48.490;9.200;2023-04-25T12:09:02;11.00;43.80
652;DHT22;310;48.490;9.200;2023-04-25T12:11:30;11.30;44.10
652;DHT22;310;48.490;9.200;2023-04-25T12:14:02;11.90;39.90
652;DHT22;310;48.490;9.200;2023-04-25T12:16:27;12.10;41.80
652;DHT22;310;48.490;9.200;2023-04-25T12:18:53;12.40;39.90
652;DHT22;310;48.490;9.200;2023-04-25T12:21:20;12.50;41.40
652;DHT22;310;48.490;9.200;2023-04-25T12:23:46;12.40;41.20
652;DHT22;310;48.490;9.200;2023-04-25T12:26:11;12.20;41.70
652;DHT22;310;48.490;9.200;2023-04-25T12:28:37;12.30;42.20
652;DHT22;310;48.490;9.200;2023-04-25T12:31:04;12.90;40.00
652;DHT22;310;48.490;9.200;2023-04-25T12:33:37;13.10;40.50
652;DHT22;310;48.490;9.200;2023-04-25T12:36:06;13.50;41.40
652;DHT22;310;48.490;9.200;2023-04-25T12:38:41;13.20;38.50
652;DHT22;310;48.490;9.200;2023-04-25T12:41:07;13.00;40.40
652;DHT22;310;48.490;9.200;2023-04-25T12:43:33;12.50;41.50
652;DHT22;310;48.490;9.200;2023-04-25T12:45:59;12.80;41.80
652;DHT22;310;48.490;9.200;2023-04-25T12:48:25;13.30;40.70
652;DHT22;310;48.490;9.200;2023-04-25T12:50:51;13.00;41.20
652;DHT22;310;48.490;9.200;2023-04-25T12:53:19;13.00;39.00
652;DHT22;310;48.490;9.200;2023-04-25T12:55:45;13.40;37.90
652;DHT22;310;48.490;9.200;2023-04-25T12:58:17;13.00;39.70
652;DHT22;310;48.490;9.200;2023-04-25T13:00:44;13.30;42.60
652;DHT22;310;48.490;9.200;2023-04-25T13:03:10;13.70;40.90
652;DHT22;310;48.490;9.200;2023-04-25T13:05:38;14.20;41.50
652;DHT22;310;48.490;9.200;2023-04-25T13:08:03;14.40;36.20
652;DHT22;310;48.490;9.200;2023-04-25T13:10:29;14.70;36.20
652;DHT22;310;48.490;9.200;2023-04-25T13:12:55;14.50;36.50
652;DHT22;310;48.490;9.200;2023-04-25T13:15:21;14.00;36.70
652;DHT22;310;48.490;9.200;2023-04-25T13:17:47;14.10;38.60
652;DHT22;310;48.490;9.200;2023-04-25T13:20:12;14.30;35.90
652;DHT22;310;48.490;9.200;2023-04-25T13:22:39;14.30;36.10
652;DHT22;310;48.490;9.200;2023-04-25T13:25:06;13.80;36.50
652;DHT22;310;48.490;9.200;2023-04-25T13:27:34;13.80;39.00
652;DHT22;310;48.490;9.200;2023-04-25T13:30:01;13.70;39.00
652;DHT22;310;48.490;9.200;2023-04-25T13:32:35;13.30;39.20
652;DHT22;310;48.490;9.200;2023-04-25T13:35:01;13.90;41.00
652;DHT22;310;48.490;9.200;2023-04-25T13:37:27;14.30;36.30
652;DHT22;310;48.490;9.200;2023-04-25T13:39:55;14.40;34.30
652;DHT22;310;48.490;9.200;2023-04-25T13:42:22;13.90;34.90
652;DHT22;310;48.490;9.200;2023-04-25T13:44:48;13.50;35.60
652;DHT22;310;48.490;9.200;2023-04-25T13:47:13;13.80;35.90
652;DHT22;310;48.490;9.200;2023-04-25T13:49:39;14.20;35.40
652;DHT22;310;48.490;9.200;2023-04-25T13:52:05;14.10;36.20
652;DHT22;310;48.490;9.200;2023-04-25T13:54:30;14.10;36.00
652;DHT22;310;48.490;9.200;2023-04-25T13:56:56;14.50;36.60
652;DHT22;310;48.490;9.200;2023-04-25T13:59:24;15.00;38.80
652;DHT22;310;48.490;9.200;2023-04-25T14:01:51;15.50;35.00
652;DHT22;310;48.490;9.200;2023-04-25T14:04:16;15.90;34.10
652;DHT22;310;48.490;9.200;2023-04-25T14:06:42;15.80;32.60
652;DHT22;310;48.490;9.200;2023-04-25T14:09:08;16.00;33.20
652;DHT22;310;48.490;9.200;2023-04-25T14:11:38;16.00;33.70
652;DHT22;310;48.490;9.200;2023-04-25T14:14:03;16.70;32.00
652;DHT22;310;48.490;9.200;2023-04-25T14:16:29;17.00;33.80
652;DHT22;310;48.490;9.200;2023-04-25T14:18:55;16.50;35.00
652;DHT22;310;48.490;9.200;2023-04-25T14:21:21;16.60;32.70
652;DHT22;310;48.490;9.200;2023-04-25T14:23:47;16.50;31.10
652;DHT22;310;48.490;9.200;2023-04-25T14:26:13;16.00;31.50
652;DHT22;310;48.490;9.200;2023-04-25T14:28:38;16.00;32.00
652;DHT22;310;48.490;9.200;2023-04-25T14:31:04;16.60;31.70
652;DHT22;310;48.490;9.200;2023-04-25T14:33:29;17.00;32.00
652;DHT22;310;48.490;9.200;2023-04-25T14:35:56;17.00;27.60
652;DHT22;310;48.490;9.200;2023-04-25T14:38:21;16.90;27.70
652;DHT22;310;48.490;9.200;2023-04-25T14:40:51;16.70;29.60
652;DHT22;310;48.490;9.200;2023-04-25T14:43:16;16.00;31.00
652;DHT22;310;48.490;9.200;2023-04-25T14:45:42;17.30;29.20
652;DHT22;310;48.490;9.200;2023-04-25T14:48:07;18.10;28.60
652;DHT22;310;48.490;9.200;2023-04-25T14:50:33;18.20;28.60
652;DHT22;310;48.490;9.200;2023-04-25T14:52:59;18.00;27.90
652;DHT22;310;48.490;9.200;2023-04-25T14:55:26;18.10;26.60
652;DHT22;310;48.490;9.200;2023-04-25T14:57:53;17.50;27.40
652;DHT22;310;48.490;9.200;2023-04-25T15:00:21;16.90;28.60
652;DHT22;310;48.490;9.200;2023-04-25T15:02:50;16.20;29.90
652;DHT22;310;48.490;9.200;2023-04-25T15:05:16;15.40;30.90
652;DHT22;310;48.490;9.200;2023-04-25T15:07:43;15.00;34.30
652;DHT22;310;48.490;9.200;2023-04-25T15:10:09;16.30;31.80
652;DHT22;310;48.490;9.200;2023-04-25T15:12:42;17.70;27.80
652;DHT22;310;48.490;9.200;2023-04-25T15:15:09;19.60;27.70
652;DHT22;310;48.490;9.200;2023-04-25T15:17:38;20.70;26.00
652;DHT22;310;48.490;9.200;2023-04-25T15:20:07;21.80;21.10
652;DHT22;310;48.490;9.200;2023-04-25T15:22:35;22.40;20.70
652;DHT22;310;48.490;9.200;2023-04-25T15:25:01;21.50;20.90
652;DHT22;310;48.490;9.200;2023-04-25T15:27:27;19.90;23.20
652;DHT22;310;48.490;9.200;2023-04-25T15:29:52;19.40;22.50
652;DHT22;310;48.490;9.200;2023-04-25T15:32:18;19.50;22.70
652;DHT22;310;48.490;9.200;2023-04-25T15:34:45;19.40;22.60
652;DHT22;310;48.490;9.200;2023-04-25T15:37:10;18.60;24.50
652;DHT22;310;48.490;9.200;2023-04-25T15:39:36;17.80;24.60
652;DHT22;310;48.490;9.200;2023-04-25T15:42:01;16.30;27.20
652;DHT22;310;48.490;9.200;2023-04-25T15:44:28;16.00;28.90
652;DHT22;310;48.490;9.200;2023-04-25T15:46:54;16.60;27.20
652;DHT22;310;48.490;9.200;2023-04-25T15:49:19;16.20;28.70
652;DHT22;310;48.490;9.200;2023-04-25T15:51:49;16.80;28.00
652;DHT22;310;48.490;9.200;2023-04-25T15:54:17;17.00;28.60
652;DHT22;310;48.490;9.200;2023-04-25T15:56:42;17.40;27.40
652;DHT22;310;48.490;9.200;2023-04-25T15:59:09;17.10;28.30
652;DHT22;310;48.490;9.200;2023-04-25T16:01:35;17.00;28.60
652;DHT22;310;48.490;9.200;2023-04-25T16:04:00;16.20;28.90
652;DHT22;310;48.490;9.200;2023-04-25T16:06:26;16.40;28.40
652;DHT22;310;48.490;9.200;2023-04-25T16:08:53;16.60;28.70
652;DHT22;310;48.490;9.200;2023-04-25T16:11:19;17.90;25.70
652;DHT22;310;48.490;9.200;2023-04-25T16:13:45;18.90;27.20
652;DHT22;310;48.490;9.200;2023-04-25T16:16:10;19.40;25.80
652;DHT22;310;48.490;9.200;2023-04-25T16:18:36;20.30;24.30
652;DHT22;310;48.490;9.200;2023-04-25T16:21:02;21.00;21.50
652;DHT22;310;48.490;9.200;2023-04-25T16:23:28;20.90;24.20
652;DHT22;310;48.490;9.200;2023-04-25T16:25:53;21.00;22.60
652;DHT22;310;48.490;9.200;2023-04-25T16:28:19;21.70;23.20
652;DHT22;310;48.490;9.200;2023-04-25T16:30:45;22.00;21.40
652;DHT22;310;48.490;9.200;2023-04-25T16:33:11;21.10;20.20
652;DHT22;310;48.490;9.200;2023-04-25T16:35:37;19.90;20.70
652;DHT22;310;48.490;9.200;2023-04-25T16:38:02;19.30;22.30
652;DHT22;310;48.490;9.200;2023-04-25T16:40:29;18.40;24.80